createdAt,value
2023-02-06T00:01:55.705Z,99703.13
2023-02-06T00:04:22.128Z,99688.63
2023-02-06T00:06:49.003Z,99694.94
2023-02-06T00:09:15.533Z,99679.25
2023-02-06T00:11:42.060Z,99680.16
2023-02-06T00:14:08.674Z,99675.47
2023-02-06T00:16:35.493Z,99673.19
2023-02-06T00:19:03.130Z,99658.28
2023-02-06T00:21:30.250Z,99665.06
2023-02-06T00:23:59.108Z,99660.75
2023-02-06T00:26:26.114Z,99661.66
2023-02-06T00:28:52.644Z,99664.91
2023-02-06T00:31:19.272Z,99655.66
2023-02-06T00:33:45.796Z,99660.81
2023-02-06T00:36:12.582Z,99674.94
2023-02-06T00:38:39.087Z,99660.81
2023-02-06T00:41:05.828Z,99670.47
2023-02-06T00:43:32.467Z,99678.34
2023-02-06T00:45:58.878Z,99676.53
2023-02-06T00:48:25.721Z,99663.53
2023-02-06T00:50:53.680Z,99683.03
2023-02-06T00:53:20.643Z,99678.50
2023-02-06T00:55:47.540Z,99682.75
2023-02-06T00:58:13.990Z,99680.63
2023-02-06T01:00:40.419Z,99686.78
2023-02-06T01:03:07.209Z,99704.31
2023-02-06T01:05:33.773Z,99712.09
2023-02-06T01:08:00.950Z,99719.13
2023-02-06T01:10:29.068Z,99726.44
2023-02-06T01:12:55.487Z,99716.13
2023-02-06T01:15:22.028Z,99729.91
2023-02-06T01:17:48.897Z,99726.44
2023-02-06T01:20:15.432Z,99731.25
2023-02-06T01:22:42.007Z,99734.06
2023-02-06T01:25:08.805Z,99730.38
2023-02-06T01:27:37.271Z,99731.53
2023-02-06T01:30:05.795Z,99734.66
2023-02-06T01:32:32.261Z,99741.44
2023-02-06T01:34:58.675Z,99738.19
2023-02-06T01:37:25.310Z,99743.41
2023-02-06T01:39:51.869Z,99752.38
2023-02-06T01:42:18.571Z,99740.41
2023-02-06T01:44:45.005Z,99749.00
2023-02-06T01:47:11.455Z,99742.94
2023-02-06T01:49:50.892Z,99740.97
2023-02-06T01:52:24.336Z,99748.75
2023-02-06T01:54:58.148Z,99746.47
2023-02-06T01:57:26.655Z,99753.31
2023-02-06T01:59:59.111Z,99756.09
2023-02-06T02:02:28.169Z,99765.41
2023-02-06T02:04:56.815Z,99752.25
2023-02-06T02:07:27.226Z,99758.97
2023-02-06T02:09:53.706Z,99757.34
2023-02-06T02:12:21.542Z,99753.38
2023-02-06T02:14:50.362Z,99748.84
2023-02-06T02:17:32.904Z,99745.06
2023-02-06T02:20:27.194Z,99749.56
2023-02-06T02:23:18.700Z,99757.22
2023-02-06T02:25:54.257Z,99750.94
2023-02-06T02:28:55.933Z,99757.59
2023-02-06T02:31:45.479Z,99739.34
2023-02-06T02:34:44.998Z,99729.03
2023-02-06T02:37:20.208Z,99721.72
2023-02-06T02:40:08.227Z,99724.19
2023-02-06T02:42:48.711Z,99734.25
2023-02-06T02:45:28.634Z,99723.13
2023-02-06T02:48:15.114Z,99719.53
2023-02-06T02:50:42.858Z,99716.66
2023-02-06T02:53:09.674Z,99717.91
2023-02-06T02:55:36.350Z,99731.59
2023-02-06T02:58:08.432Z,99737.72
2023-02-06T03:00:40.019Z,99742.03
2023-02-06T03:03:08.923Z,99738.69
2023-02-06T03:05:42.495Z,99741.25
2023-02-06T03:08:22.103Z,99745.00
2023-02-06T03:11:02.665Z,99746.22
2023-02-06T03:13:38.145Z,99748.63
2023-02-06T03:16:43.012Z,99741.66
2023-02-06T03:19:22.925Z,99733.97
2023-02-06T03:21:49.957Z,99750.47
2023-02-06T03:24:33.255Z,99747.34
2023-02-06T03:27:03.567Z,99732.69
2023-02-06T03:29:34.060Z,99726.94
2023-02-06T03:32:04.393Z,99722.06
2023-02-06T03:34:44.581Z,99732.28
2023-02-06T03:37:11.780Z,99724.97
2023-02-06T03:39:39.468Z,99713.41
2023-02-06T03:42:06.969Z,99727.75
2023-02-06T03:44:39.381Z,99724.38
2023-02-06T03:47:08.123Z,99722.06
2023-02-06T03:49:37.925Z,99711.34
2023-02-06T03:52:15.855Z,99714.19
2023-02-06T03:54:49.045Z,99721.66
2023-02-06T03:57:19.368Z,99724.84
2023-02-06T03:59:47.079Z,99727.88
2023-02-06T04:02:15.159Z,99726.09
2023-02-06T04:04:44.466Z,99723.06
2023-02-06T04:07:19.829Z,99724.13
2023-02-06T04:09:46.288Z,99728.72
2023-02-06T04:12:12.749Z,99734.56
2023-02-06T04:14:39.956Z,99744.72
2023-02-06T04:17:07.125Z,99755.66
2023-02-06T04:19:34.010Z,99752.06
2023-02-06T04:22:00.981Z,99752.22
2023-02-06T04:24:29.272Z,99754.19
2023-02-06T04:26:57.168Z,99752.22
2023-02-06T04:29:23.653Z,99738.38
2023-02-06T04:31:50.100Z,99732.81
2023-02-06T04:34:16.931Z,99728.16
2023-02-06T04:36:44.165Z,99732.69
2023-02-06T04:39:10.985Z,99749.31
2023-02-06T04:41:37.458Z,99745.16
2023-02-06T04:44:04.248Z,99748.41
2023-02-06T04:46:30.726Z,99757.56
2023-02-06T04:48:57.147Z,99765.75
2023-02-06T04:51:23.591Z,99757.06
2023-02-06T04:53:49.997Z,99765.75
2023-02-06T04:56:16.476Z,99767.31
2023-02-06T04:58:43.173Z,99740.91
2023-02-06T05:01:09.883Z,99747.56
2023-02-06T05:03:36.554Z,99751.09
2023-02-06T05:06:04.398Z,99752.06
2023-02-06T05:08:31.401Z,99755.31
2023-02-06T05:10:57.827Z,99747.00
2023-02-06T05:13:24.293Z,99751.50
2023-02-06T05:15:52.099Z,99749.53
2023-02-06T05:18:18.682Z,99749.97
2023-02-06T05:20:45.536Z,99739.09
2023-02-06T05:23:12.064Z,99734.44
2023-02-06T05:25:39.193Z,99737.56
2023-02-06T05:28:07.414Z,99743.19
2023-02-06T05:30:35.071Z,99753.06
2023-02-06T05:33:01.950Z,99764.78
2023-02-06T05:35:29.445Z,99766.25
2023-02-06T05:37:56.982Z,99768.66
2023-02-06T05:40:23.514Z,99782.97
2023-02-06T05:42:50.208Z,99779.59
2023-02-06T05:45:16.956Z,99785.22
2023-02-06T05:47:43.392Z,99794.69
2023-02-06T05:50:09.912Z,99783.34
2023-02-06T05:52:36.575Z,99786.81
2023-02-06T05:55:03.149Z,99791.88
2023-02-06T05:57:29.637Z,99796.41
2023-02-06T05:59:56.068Z,99801.75
2023-02-06T06:02:22.514Z,99810.34
2023-02-06T06:04:48.948Z,99818.84
2023-02-06T06:07:16.322Z,99826.94
2023-02-06T06:09:43.132Z,99823.34
2023-02-06T06:12:09.596Z,99831.25
2023-02-06T06:14:36.013Z,99834.69
2023-02-06T06:17:02.671Z,99829.56
2023-02-06T06:19:29.178Z,99841.56
2023-02-06T06:21:57.892Z,99841.84
2023-02-06T06:24:26.422Z,99852.00
2023-02-06T06:26:53.005Z,99846.78
2023-02-06T06:29:19.574Z,99844.25
2023-02-06T06:31:46.153Z,99838.16
2023-02-06T06:34:12.819Z,99843.38
2023-02-06T06:36:39.276Z,99850.31
2023-02-06T06:39:05.686Z,99854.56
2023-02-06T06:41:32.149Z,99865.47
2023-02-06T06:43:58.905Z,99869.06
2023-02-06T06:46:25.598Z,99853.56
2023-02-06T06:48:52.223Z,99873.69
2023-02-06T06:51:18.639Z,99880.28
2023-02-06T06:53:45.096Z,99893.38
2023-02-06T06:56:14.457Z,99895.88
2023-02-06T06:58:41.819Z,99900.19
2023-02-06T07:01:09.451Z,99910.09
2023-02-06T07:03:36.694Z,99911.81
2023-02-06T07:06:03.333Z,99917.59
2023-02-06T07:08:30.109Z,99928.13
2023-02-06T07:10:58.012Z,99922.38
2023-02-06T07:13:24.446Z,99918.28
2023-02-06T07:15:50.826Z,99934.50
2023-02-06T07:18:17.312Z,99930.75
2023-02-06T07:20:43.757Z,99925.38
2023-02-06T07:23:10.192Z,99924.38
2023-02-06T07:25:36.848Z,99931.78
2023-02-06T07:28:03.604Z,99932.69
2023-02-06T07:30:30.129Z,99932.50
2023-02-06T07:32:56.651Z,99926.22
2023-02-06T07:35:23.073Z,99948.41
2023-02-06T07:37:49.654Z,99941.19
2023-02-06T07:40:16.811Z,99936.94
2023-02-06T07:42:43.254Z,99948.81
2023-02-06T07:45:10.143Z,99946.94
2023-02-06T07:47:36.642Z,99932.13
2023-02-06T07:50:04.360Z,99943.50
2023-02-06T07:52:31.277Z,99947.22
2023-02-06T07:54:57.668Z,99951.66
2023-02-06T07:57:24.141Z,99964.19
2023-02-06T07:59:50.744Z,99979.91
2023-02-06T08:02:17.188Z,99989.06
2023-02-06T08:04:44.643Z,99982.31
2023-02-06T08:07:14.961Z,100008.63
2023-02-06T08:09:41.984Z,99995.97
2023-02-06T08:12:10.950Z,100016.84
2023-02-06T08:14:43.105Z,100033.72
2023-02-06T08:17:09.736Z,100062.22
2023-02-06T08:19:36.200Z,100047.16
2023-02-06T08:22:02.650Z,100052.09
2023-02-06T08:24:29.098Z,100056.44
2023-02-06T08:26:56.287Z,100068.72
2023-02-06T08:29:22.885Z,100064.75
2023-02-06T08:31:49.824Z,100073.41
2023-02-06T08:34:16.359Z,100066.19
2023-02-06T08:36:43.688Z,100071.31
2023-02-06T08:39:13.368Z,100067.00
2023-02-06T08:41:41.423Z,100058.91
2023-02-06T08:44:14.480Z,100053.81
2023-02-06T08:46:41.022Z,100059.72
2023-02-06T08:49:11.943Z,100053.09
2023-02-06T08:51:38.381Z,100060.78
2023-02-06T08:54:07.112Z,100058.66
2023-02-06T08:56:35.309Z,100057.25
2023-02-06T08:59:02.269Z,100060.66
2023-02-06T09:01:31.103Z,100067.59
2023-02-06T09:04:00.446Z,100068.84
2023-02-06T09:06:27.520Z,100062.19
2023-02-06T09:08:54.391Z,100057.03
2023-02-06T09:11:22.794Z,100072.16
2023-02-06T09:13:50.368Z,100067.78
2023-02-06T09:16:19.829Z,100062.28
2023-02-06T09:18:46.877Z,100060.13
2023-02-06T09:21:16.121Z,100076.31
2023-02-06T09:23:45.552Z,100056.19
2023-02-06T09:26:17.502Z,100058.72
2023-02-06T09:28:43.932Z,100069.28
2023-02-06T09:31:11.684Z,100089.38
2023-02-06T09:33:39.533Z,100111.59
2023-02-06T09:36:12.266Z,100118.59
2023-02-06T09:38:41.013Z,100128.69
2023-02-06T09:41:18.997Z,100139.75
2023-02-06T09:43:51.679Z,100143.44
2023-02-06T09:46:23.323Z,100149.66
2023-02-06T09:48:50.903Z,100157.03
2023-02-06T09:51:56.542Z,100156.38
2023-02-06T09:54:29.365Z,100160.38
2023-02-06T09:57:13.034Z,100158.66
2023-02-06T09:59:45.052Z,100180.81
2023-02-06T10:02:41.015Z,100194.94
2023-02-06T10:05:26.992Z,100196.53
2023-02-06T10:08:12.952Z,100186.69
2023-02-06T10:10:46.296Z,100203.47
2023-02-06T10:13:31.018Z,100189.00
2023-02-06T10:16:34.102Z,100196.25
2023-02-06T10:19:22.775Z,100187.31
2023-02-06T10:21:55.454Z,100183.97
2023-02-06T10:25:02.704Z,100181.91
2023-02-06T10:27:33.693Z,100179.41
2023-02-06T10:30:01.747Z,100179.69
2023-02-06T10:33:11.797Z,100164.72
2023-02-06T10:35:46.233Z,100122.28
2023-02-06T10:39:00.782Z,100091.47
2023-02-06T10:41:40.588Z,100115.06
2023-02-06T10:44:26.655Z,100129.59
2023-02-06T10:46:55.676Z,100114.19
2023-02-06T10:49:36.093Z,100096.63
2023-02-06T10:52:14.584Z,100117.47
2023-02-06T10:54:50.979Z,100130.69
2023-02-06T10:57:21.716Z,100149.19
2023-02-06T10:59:53.757Z,100163.66
2023-02-06T11:02:20.398Z,100156.78
2023-02-06T11:04:56.804Z,100171.22
2023-02-06T11:07:28.669Z,100174.63
2023-02-06T11:09:55.374Z,100148.00
2023-02-06T11:12:32.429Z,100184.06
2023-02-06T11:15:05.052Z,100174.69
2023-02-06T11:17:33.191Z,100185.38
2023-02-06T11:20:15.206Z,100177.25
2023-02-06T11:22:52.430Z,100176.31
2023-02-06T11:25:21.514Z,100190.28
2023-02-06T11:27:48.856Z,100209.31
2023-02-06T11:30:43.035Z,100198.31
2023-02-06T11:33:22.888Z,100205.78
2023-02-06T11:35:59.091Z,100210.09
2023-02-06T11:38:29.514Z,100229.22
2023-02-06T11:41:16.984Z,100219.69
2023-02-06T11:43:43.338Z,100240.91
2023-02-06T11:46:15.113Z,100242.19
2023-02-06T11:48:55.668Z,100254.50
2023-02-06T11:51:24.444Z,100254.78
2023-02-06T11:54:01.232Z,100256.53
2023-02-06T11:56:28.973Z,100265.88
2023-02-06T11:59:23.057Z,100260.13
2023-02-06T12:01:50.097Z,100256.56
2023-02-06T12:04:24.637Z,100266.34
2023-02-06T12:09:19.276Z,100264.06
2023-02-06T12:14:19.354Z,100249.03
2023-02-06T12:16:46.874Z,100270.94
2023-02-06T12:19:31.747Z,100253.81
2023-02-06T12:22:02.733Z,100277.59
2023-02-06T12:24:29.186Z,100277.75
2023-02-06T12:26:59.735Z,100268.09
2023-02-06T12:29:40.555Z,100256.56
2023-02-06T12:32:19.345Z,100280.16
2023-02-06T12:34:54.185Z,100277.72
2023-02-06T12:37:42.126Z,100285.16
2023-02-06T12:40:32.777Z,100289.31
2023-02-06T12:43:09.497Z,100283.81
2023-02-06T12:49:18.873Z,100263.78
2023-02-06T12:52:04.846Z,100290.09
2023-02-06T12:54:44.811Z,100288.72
2023-02-06T12:57:20.219Z,100299.38
2023-02-06T12:59:58.452Z,100288.97
2023-02-06T13:02:53.682Z,100288.28
2023-02-06T13:05:23.138Z,100302.94
2023-02-06T13:07:50.990Z,100311.59
2023-02-06T13:10:25.502Z,100318.81
2023-02-06T13:12:58.537Z,100314.31
2023-02-06T13:15:35.174Z,100322.22
2023-02-06T13:18:01.814Z,100330.72
2023-02-06T13:20:30.856Z,100324.22
2023-02-06T13:23:23.499Z,100316.72
2023-02-06T13:25:50.356Z,100323.31
2023-02-06T13:28:22.888Z,100327.81
2023-02-06T13:30:59.867Z,100330.19
2023-02-06T13:33:37.992Z,100344.59
2023-02-06T13:36:16.595Z,100339.47
2023-02-06T13:38:43.665Z,100351.06
2023-02-06T13:41:15.877Z,100356.16
2023-02-06T13:43:59.421Z,100357.50
2023-02-06T13:46:44.644Z,100345.69
2023-02-06T13:49:38.675Z,100332.38
2023-02-06T13:52:24.750Z,100349.97
2023-02-06T13:55:20.880Z,100346.94
2023-02-06T13:58:15.415Z,100354.44
2023-02-06T14:00:45.909Z,100340.97
2023-02-06T14:03:18.390Z,100351.75
2023-02-06T14:05:47.831Z,100361.44
2023-02-06T14:08:32.537Z,100366.44
2023-02-06T14:11:32.750Z,100381.28
2023-02-06T14:14:18.061Z,100370.84
2023-02-06T14:17:06.786Z,100372.56
2023-02-06T14:19:54.170Z,100369.50
2023-02-06T14:22:45.866Z,100350.41
2023-02-06T14:25:22.778Z,100365.97
2023-02-06T14:28:12.856Z,100355.69
2023-02-06T14:31:02.187Z,100351.31
2023-02-06T14:34:07.069Z,100362.47
2023-02-06T14:36:43.388Z,100345.53
2023-02-06T14:39:54.720Z,100340.34
2023-02-06T14:42:33.305Z,100314.63
2023-02-06T14:45:23.937Z,100198.19
2023-02-06T14:47:52.394Z,100378.00
2023-02-06T14:50:25.365Z,100377.09
2023-02-06T14:52:56.385Z,100390.41
2023-02-06T14:55:39.672Z,100358.72
2023-02-06T14:58:18.533Z,100395.59
2023-02-06T15:00:45.480Z,100393.34
2023-02-06T15:03:19.072Z,100403.22
2023-02-06T15:05:46.235Z,100405.16
2023-02-06T15:08:19.321Z,100402.84
2023-02-06T15:10:46.836Z,100392.31
2023-02-06T15:13:24.499Z,100388.47
2023-02-06T15:15:55.821Z,100394.31
2023-02-06T15:18:22.753Z,100399.09
2023-02-06T15:21:04.432Z,100412.38
2023-02-06T15:23:55.351Z,100399.72
2023-02-06T15:26:25.439Z,100397.34
2023-02-06T15:29:04.183Z,100396.38
2023-02-06T15:31:31.448Z,100401.09
2023-02-06T15:34:00.182Z,100402.88
2023-02-06T15:36:32.529Z,100404.81
2023-02-06T15:39:00.795Z,100394.47
2023-02-06T15:41:30.956Z,100410.03
2023-02-06T15:44:02.967Z,100418.91
2023-02-06T15:46:31.093Z,100413.34
2023-02-06T15:48:58.341Z,100407.69
2023-02-06T15:51:39.703Z,100423.22
2023-02-06T15:54:27.522Z,100425.59
2023-02-06T15:56:58.812Z,100430.25
2023-02-06T15:59:26.815Z,100434.38
2023-02-06T16:01:56.782Z,100432.56
2023-02-06T16:04:33.152Z,100429.91
2023-02-06T16:07:11.566Z,100421.47
2023-02-06T16:09:51.942Z,100422.22
2023-02-06T16:12:21.380Z,100408.47
2023-02-06T16:15:02.520Z,100410.97
2023-02-06T16:17:35.344Z,100418.56
2023-02-06T16:20:23.970Z,100424.13
2023-02-06T16:22:56.999Z,100430.00
2023-02-06T16:25:28.882Z,100442.44
2023-02-06T16:27:56.157Z,100449.88
2023-02-06T16:30:33.144Z,100456.72
2023-02-06T16:33:08.989Z,100306.50
2023-02-06T16:35:35.401Z,100455.91
2023-02-06T16:38:01.836Z,100461.56
2023-02-06T16:40:28.318Z,100459.91
2023-02-06T16:42:54.893Z,100469.28
2023-02-06T16:45:26.299Z,100457.09
2023-02-06T16:47:57.499Z,100459.53
2023-02-06T16:50:25.253Z,100459.75
2023-02-06T16:52:55.186Z,100467.41
2023-02-06T16:55:24.175Z,100477.94
2023-02-06T16:57:58.663Z,100477.09
2023-02-06T17:00:30.994Z,100483.75
2023-02-06T17:03:03.936Z,100430.81
2023-02-06T17:05:31.494Z,100477.88
2023-02-06T17:07:59.075Z,100481.31
2023-02-06T17:10:26.420Z,100464.00
2023-02-06T17:12:53.019Z,100467.50
2023-02-06T17:15:19.720Z,100460.56
2023-02-06T17:17:46.574Z,100461.97
2023-02-06T17:20:38.129Z,100463.63
2023-02-06T17:23:05.551Z,100446.56
2023-02-06T17:25:32.298Z,100459.34
2023-02-06T17:27:59.337Z,100461.06
2023-02-06T17:30:26.577Z,100460.97
2023-02-06T17:32:53.384Z,100468.13
2023-02-06T17:35:19.910Z,100470.03
2023-02-06T17:37:46.694Z,100437.78
2023-02-06T17:40:20.835Z,100472.31
2023-02-06T17:42:48.207Z,100469.16
2023-02-06T17:45:15.990Z,100461.97
2023-02-06T17:47:43.650Z,100463.63
2023-02-06T17:50:14.284Z,100460.31
2023-02-06T17:52:40.705Z,100468.13
2023-02-06T17:55:07.922Z,100461.00
2023-02-06T17:57:36.598Z,100459.59
2023-02-06T18:00:12.366Z,100469.50
2023-02-06T18:02:38.914Z,100478.44
2023-02-06T18:05:06.414Z,100481.00
2023-02-06T18:07:33.015Z,100450.81
2023-02-06T18:09:59.490Z,100465.16
2023-02-06T18:12:26.021Z,100468.72
2023-02-06T18:14:52.614Z,100478.03
2023-02-06T18:17:19.126Z,100473.31
2023-02-06T18:19:46.612Z,100475.97
2023-02-06T18:22:17.332Z,100488.38
2023-02-06T18:24:44.616Z,100475.69
2023-02-06T18:27:18.460Z,100468.88
2023-02-06T18:29:50.018Z,100483.06
2023-02-06T18:32:18.239Z,100478.94
2023-02-06T18:34:44.760Z,100491.94
2023-02-06T18:37:11.294Z,100478.22
2023-02-06T18:39:37.863Z,100478.31
2023-02-06T18:42:23.421Z,100476.00
2023-02-06T18:44:50.094Z,100470.41
2023-02-06T18:47:17.569Z,100469.81
2023-02-06T18:49:44.041Z,100460.34
2023-02-06T18:52:10.539Z,100461.81
2023-02-06T18:54:38.996Z,100451.25
2023-02-06T18:57:06.020Z,100444.94
2023-02-06T18:59:32.586Z,100458.41
2023-02-06T19:01:59.122Z,100463.97
2023-02-06T19:04:25.790Z,100479.47
2023-02-06T19:06:52.213Z,100467.09
2023-02-06T19:09:28.456Z,100477.38
2023-02-06T19:11:54.963Z,100465.91
2023-02-06T19:14:25.266Z,100469.47
2023-02-06T19:16:52.966Z,100485.22
2023-02-06T19:19:19.476Z,100502.44
2023-02-06T19:21:46.107Z,100501.66
2023-02-06T19:24:15.079Z,100503.53
2023-02-06T19:26:42.268Z,100515.28
2023-02-06T19:29:09.447Z,100507.41
2023-02-06T19:31:39.221Z,100529.78
2023-02-06T19:34:06.570Z,100518.41
2023-02-06T19:36:34.972Z,100526.94
2023-02-06T19:39:04.971Z,100496.59
2023-02-06T19:41:33.581Z,100509.47
2023-02-06T19:44:09.743Z,100501.28
2023-02-06T19:46:36.347Z,100493.19
2023-02-06T19:49:05.631Z,100512.88
2023-02-06T19:51:38.444Z,100506.06
2023-02-06T19:54:05.963Z,100506.31
2023-02-06T19:56:39.307Z,100501.31
2023-02-06T19:59:09.944Z,100495.72
2023-02-06T20:01:36.480Z,100493.19
2023-02-06T20:04:03.614Z,100493.13
2023-02-06T20:06:35.577Z,100471.06
2023-02-06T20:09:05.055Z,100516.66
2023-02-06T20:11:32.970Z,100515.41
2023-02-06T20:13:59.628Z,100526.69
2023-02-06T20:16:30.375Z,100503.22
2023-02-06T20:18:58.521Z,100499.97
2023-02-06T20:21:32.396Z,100515.50
2023-02-06T20:24:02.977Z,100512.16
2023-02-06T20:26:34.595Z,100479.47
2023-02-06T20:29:03.070Z,100491.75
2023-02-06T20:31:30.137Z,100486.38
2023-02-06T20:33:56.744Z,100488.84
2023-02-06T20:36:26.348Z,100488.28
2023-02-06T20:38:57.964Z,100483.78
2023-02-06T20:41:31.140Z,100448.88
2023-02-06T20:44:00.109Z,100488.19
2023-02-06T20:46:29.726Z,100469.97
2023-02-06T20:48:58.435Z,100470.03
2023-02-06T20:51:25.151Z,100477.41
2023-02-06T20:53:51.925Z,100488.53
2023-02-06T20:56:19.400Z,100473.31
2023-02-06T20:58:47.295Z,100455.28
2023-02-06T21:01:17.610Z,100449.94
2023-02-06T21:03:46.150Z,100450.00
2023-02-06T21:06:13.990Z,100447.22
2023-02-06T21:08:41.425Z,100447.22
2023-02-06T21:11:08.075Z,100447.22
2023-02-06T21:13:35.058Z,100435.16
2023-02-06T21:16:01.919Z,100440.56
2023-02-06T21:18:31.335Z,100409.91
2023-02-06T21:21:07.141Z,100432.69
2023-02-06T21:23:33.866Z,100424.72
2023-02-06T21:26:03.108Z,100423.50
2023-02-06T21:28:29.528Z,100422.56
2023-02-06T21:31:02.042Z,100426.78
2023-02-06T21:33:28.717Z,100432.34
2023-02-06T21:35:55.611Z,100443.19
2023-02-06T21:38:22.241Z,100439.59
2023-02-06T21:40:49.331Z,100441.03
2023-02-06T21:43:16.088Z,100440.22
2023-02-06T21:45:45.339Z,100433.88
2023-02-06T21:48:11.883Z,100445.81
2023-02-06T21:50:39.809Z,100449.19
2023-02-06T21:53:08.031Z,100414.06
2023-02-06T21:55:34.603Z,100446.06
2023-02-06T21:58:01.379Z,100446.75
2023-02-06T22:00:28.789Z,100426.91
2023-02-06T22:02:55.313Z,100452.16
2023-02-06T22:05:21.843Z,100453.03
2023-02-06T22:07:48.287Z,100435.38
2023-02-06T22:10:14.813Z,100452.75
2023-02-06T22:12:41.257Z,100469.38
2023-02-06T22:15:08.333Z,100461.75
2023-02-06T22:17:35.490Z,100471.22
2023-02-06T22:20:02.139Z,100475.44
2023-02-06T22:22:28.812Z,100473.03
2023-02-06T22:24:59.670Z,100439.16
2023-02-06T22:27:26.088Z,100477.31
2023-02-06T22:29:55.527Z,100486.91
2023-02-06T22:32:21.990Z,100500.94
2023-02-06T22:34:50.846Z,100484.78
2023-02-06T22:37:17.756Z,100505.28
2023-02-06T22:39:44.297Z,100520.41
2023-02-06T22:42:10.733Z,100513.56
2023-02-06T22:44:37.636Z,100489.34
2023-02-06T22:47:04.177Z,100502.66
2023-02-06T22:49:30.593Z,100511.34
2023-02-06T22:52:01.215Z,100516.59
2023-02-06T22:54:27.704Z,100521.97
2023-02-06T22:56:54.733Z,100528.63
2023-02-06T22:59:23.546Z,100532.91
2023-02-06T23:01:53.085Z,100536.50
2023-02-06T23:04:22.468Z,100534.50
2023-02-06T23:06:49.745Z,100526.94
2023-02-06T23:09:19.024Z,100512.88
2023-02-06T23:11:46.299Z,100489.19
2023-02-06T23:14:14.679Z,100530.50
2023-02-06T23:16:44.375Z,100528.78
2023-02-06T23:19:13.814Z,100526.78
2023-02-06T23:21:43.372Z,100538.75
2023-02-06T23:24:10.439Z,100538.84
2023-02-06T23:26:37.863Z,100531.75
2023-02-06T23:29:06.893Z,100540.06
2023-02-06T23:31:35.834Z,100556.06
2023-02-06T23:34:02.998Z,100548.34
2023-02-06T23:36:29.615Z,100558.00
2023-02-06T23:38:56.077Z,100565.00
2023-02-06T23:41:25.939Z,100577.66
2023-02-06T23:43:54.847Z,100580.31
2023-02-06T23:46:22.192Z,100579.41
2023-02-06T23:48:49.660Z,100583.78
2023-02-06T23:51:17.249Z,100578.66
2023-02-06T23:53:43.773Z,100579.56
2023-02-06T23:56:12.452Z,100588.72
2023-02-06T23:58:40.423Z,100580.88
